Orovada, Nevada
Current Conditions -  °F | °C
As of 6:56 PM on Monday 22 Dec 2014 (Local Time) from KWMC Reporting Station
Clear Clear  
Wind Chill: 36°   Ceiling: Unl
Heat Index: 41°   Visibility: 10mi
Dew Point: 32°   Wind: 7mph
Humidity: 70%   Direction: 340°NNW
Pressure: 30.3"   Gusts: NA
Location:  41.57°N, 117.79°W
Report Text: KWMC 230256Z AUTO 34006KT 10SM CLR 05/00 A3030 RMK AO2 SLP257 T00500000 51017
Loading
Personal Weather Stations






























Interactive Weather Map New forecast layout! Learn more

10-Day Weather Forecast

Advertisements
Track Severe Weather on mobile